< < Back
Terminal Aerodrome Forecast


Current Version              Previous Versions:   1  2  3  4  5  6  7  8  9  

Terminal Aerodrome Forecast

117
FTUS42 KTAE 290520
TAFVLD
TAF
KVLD 290520Z 2906/3006 08004KT P6SM SCT060
     FM291000 05003KT P6SM BKN015
     FM291400 07008KT P6SM SCT030=

Latest METAR

403
SAUS70 KWBC 300700 RRD
MTRVLD
METAR KVLD 300653Z AUTO 07003KT 10SM CLR 24/24 A2998 RMK AO2 SLP159
T02440239


USA.gov is the U.S. government's official web portal to all federal, state and local government web resources and services.